sensor_id;sensor_type;location;lat;lon;timestamp;pressure;altitude;pressure_sealevel;temperature;humidity
35519;BME280;21627;48.216;16.482;2023-02-23T00:02:07;99631.91;;;4.70;100.00
35519;BME280;21627;48.216;16.482;2023-02-23T00:04:35;99618.19;;;4.67;100.00
35519;BME280;21627;48.216;16.482;2023-02-23T00:07:03;99612.00;;;4.57;100.00
35519;BME280;21627;48.216;16.482;2023-02-23T00:09:32;99618.94;;;4.63;100.00
35519;BME280;21627;48.216;16.482;2023-02-23T00:12:04;99629.97;;;4.60;100.00
35519;BME280;21627;48.216;16.482;2023-02-23T00:14:36;99605.06;;;4.53;100.00
35519;BME280;21627;48.216;16.482;2023-02-23T00:17:05;99620.47;;;4.56;100.00
35519;BME280;21627;48.216;16.482;2023-02-23T00:19:41;99613.53;;;4.49;100.00
35519;BME280;21627;48.216;16.482;2023-02-23T00:22:12;99620.41;;;4.51;100.00
35519;BME280;21627;48.216;16.482;2023-02-23T00:24:39;99622.91;;;4.50;100.00
35519;BME280;21627;48.216;16.482;2023-02-23T00:27:09;99615.13;;;4.44;100.00
35519;BME280;21627;48.216;16.482;2023-02-23T00:29:36;99609.03;;;4.39;100.00
35519;BME280;21627;48.216;16.482;2023-02-23T00:32:07;99622.88;;;4.47;100.00
35519;BME280;21627;48.216;16.482;2023-02-23T00:34:35;99612.50;;;4.42;100.00
35519;BME280;21627;48.216;16.482;2023-02-23T00:37:03;99616.78;;;4.42;100.00
35519;BME280;21627;48.216;16.482;2023-02-23T00:39:30;99603.91;;;4.39;100.00
35519;BME280;21627;48.216;16.482;2023-02-23T00:42:01;99610.81;;;4.41;100.00
35519;BME280;21627;48.216;16.482;2023-02-23T00:44:29;99614.16;;;4.40;100.00
35519;BME280;21627;48.216;16.482;2023-02-23T00:46:56;99619.22;;;4.37;100.00
35519;BME280;21627;48.216;16.482;2023-02-23T00:49:24;99608.06;;;4.33;100.00
35519;BME280;21627;48.216;16.482;2023-02-23T00:51:52;99600.91;;;4.20;100.00
35519;BME280;21627;48.216;16.482;2023-02-23T00:54:20;99616.50;;;4.29;100.00
35519;BME280;21627;48.216;16.482;2023-02-23T00:56:48;99624.06;;;4.25;100.00
35519;BME280;21627;48.216;16.482;2023-02-23T00:59:17;99599.81;;;4.09;100.00
35519;BME280;21627;48.216;16.482;2023-02-23T01:01:45;99617.13;;;4.19;100.00
35519;BME280;21627;48.216;16.482;2023-02-23T01:04:12;99616.16;;;4.16;100.00
35519;BME280;21627;48.216;16.482;2023-02-23T01:06:40;99610.97;;;4.11;100.00
35519;BME280;21627;48.216;16.482;2023-02-23T01:09:13;99606.53;;;4.04;100.00
35519;BME280;21627;48.216;16.482;2023-02-23T01:11:42;99612.59;;;4.09;100.00
35519;BME280;21627;48.216;16.482;2023-02-23T01:14:13;99608.28;;;4.06;100.00
35519;BME280;21627;48.216;16.482;2023-02-23T01:16:40;99599.56;;;3.98;100.00
35519;BME280;21627;48.216;16.482;2023-02-23T01:19:09;99609.06;;;4.04;100.00
35519;BME280;21627;48.216;16.482;2023-02-23T01:21:40;99600.50;;;4.02;100.00
35519;BME280;21627;48.216;16.482;2023-02-23T01:24:12;99606.41;;;3.99;100.00
35519;BME280;21627;48.216;16.482;2023-02-23T01:26:43;99603.78;;;3.96;100.00
35519;BME280;21627;48.216;16.482;2023-02-23T01:29:16;99585.69;;;3.88;100.00
35519;BME280;21627;48.216;16.482;2023-02-23T01:31:47;99600.13;;;3.86;100.00
35519;BME280;21627;48.216;16.482;2023-02-23T01:34:15;99589.91;;;3.86;100.00
35519;BME280;21627;48.216;16.482;2023-02-23T01:36:43;99596.72;;;3.87;100.00
35519;BME280;21627;48.216;16.482;2023-02-23T01:39:15;99590.75;;;3.87;100.00
35519;BME280;21627;48.216;16.482;2023-02-23T01:41:43;99597.53;;;3.85;100.00
35519;BME280;21627;48.216;16.482;2023-02-23T01:46:44;99586.13;;;3.72;100.00
35519;BME280;21627;48.216;16.482;2023-02-23T01:49:19;99589.66;;;3.76;100.00
35519;BME280;21627;48.216;16.482;2023-02-23T01:52:06;99579.38;;;3.74;100.00
35519;BME280;21627;48.216;16.482;2023-02-23T01:54:45;99575.97;;;3.74;100.00
35519;BME280;21627;48.216;16.482;2023-02-23T01:57:19;99569.75;;;3.64;100.00
35519;BME280;21627;48.216;16.482;2023-02-23T01:59:49;99557.75;;;3.61;100.00
35519;BME280;21627;48.216;16.482;2023-02-23T02:02:18;99565.41;;;3.61;100.00
35519;BME280;21627;48.216;16.482;2023-02-23T02:04:47;99584.25;;;3.65;100.00
35519;BME280;21627;48.216;16.482;2023-02-23T02:07:25;99580.81;;;3.63;100.00
35519;BME280;21627;48.216;16.482;2023-02-23T02:09:56;99571.38;;;3.60;100.00
35519;BME280;21627;48.216;16.482;2023-02-23T02:12:40;99573.84;;;3.57;100.00
35519;BME280;21627;48.216;16.482;2023-02-23T02:15:11;99575.53;;;3.57;100.00
35519;BME280;21627;48.216;16.482;2023-02-23T02:17:58;99575.47;;;3.54;100.00
35519;BME280;21627;48.216;16.482;2023-02-23T02:20:51;99577.84;;;3.47;100.00
35519;BME280;21627;48.216;16.482;2023-02-23T02:35:20;99577.63;;;3.38;100.00
35519;BME280;21627;48.216;16.482;2023-02-23T02:40:51;99570.75;;;3.37;100.00
35519;BME280;21627;48.216;16.482;2023-02-23T02:46:16;99565.56;;;3.33;100.00
35519;BME280;21627;48.216;16.482;2023-02-23T02:56:41;99572.19;;;3.26;100.00
35519;BME280;21627;48.216;16.482;2023-02-23T02:59:14;99565.19;;;3.19;100.00
35519;BME280;21627;48.216;16.482;2023-02-23T03:02:02;99572.13;;;3.24;100.00
35519;BME280;21627;48.216;16.482;2023-02-23T03:04:48;99574.66;;;3.23;100.00
35519;BME280;21627;48.216;16.482;2023-02-23T03:07:52;99566.75;;;3.14;100.00
35519;BME280;21627;48.216;16.482;2023-02-23T03:21:06;99583.84;;;3.16;100.00
35519;BME280;21627;48.216;16.482;2023-02-23T03:23:57;99591.66;;;3.21;100.00
35519;BME280;21627;48.216;16.482;2023-02-23T03:27:03;99579.59;;;3.17;100.00
35519;BME280;21627;48.216;16.482;2023-02-23T03:29:59;99574.28;;;3.09;100.00
35519;BME280;21627;48.216;16.482;2023-02-23T03:33:02;99591.56;;;3.18;100.00
35519;BME280;21627;48.216;16.482;2023-02-23T03:36:14;99581.34;;;3.18;100.00
35519;BME280;21627;48.216;16.482;2023-02-23T03:42:03;99577.81;;;3.13;100.00
35519;BME280;21627;48.216;16.482;2023-02-23T03:44:51;99586.34;;;3.15;100.00
35519;BME280;21627;48.216;16.482;2023-02-23T03:47:40;99591.56;;;3.18;100.00
35519;BME280;21627;48.216;16.482;2023-02-23T03:50:42;99590.66;;;3.16;100.00
35519;BME280;21627;48.216;16.482;2023-02-23T03:53:43;99595.78;;;3.17;100.00
35519;BME280;21627;48.216;16.482;2023-02-23T03:56:34;99594.06;;;3.16;100.00
35519;BME280;21627;48.216;16.482;2023-02-23T03:59:29;99594.94;;;3.17;100.00
35519;BME280;21627;48.216;16.482;2023-02-23T04:02:19;99588.03;;;3.13;100.00
35519;BME280;21627;48.216;16.482;2023-02-23T04:05:13;99598.44;;;3.20;100.00
35519;BME280;21627;48.216;16.482;2023-02-23T04:08:02;99599.22;;;3.18;100.00
35519;BME280;21627;48.216;16.482;2023-02-23T04:10:57;99599.31;;;3.21;100.00
35519;BME280;21627;48.216;16.482;2023-02-23T04:13:49;99605.31;;;3.23;100.00
35519;BME280;21627;48.216;16.482;2023-02-23T04:16:17;99603.59;;;3.22;100.00
35519;BME280;21627;48.216;16.482;2023-02-23T04:18:45;99582.06;;;3.14;100.00
35519;BME280;21627;48.216;16.482;2023-02-23T04:21:13;99607.91;;;3.24;100.00
35519;BME280;21627;48.216;16.482;2023-02-23T04:23:41;99600.16;;;3.21;100.00
35519;BME280;21627;48.216;16.482;2023-02-23T04:26:12;99601.88;;;3.21;100.00
35519;BME280;21627;48.216;16.482;2023-02-23T04:28:42;99597.63;;;3.21;100.00
35519;BME280;21627;48.216;16.482;2023-02-23T04:31:09;99602.78;;;3.23;100.00
35519;BME280;21627;48.216;16.482;2023-02-23T04:33:37;99607.03;;;3.24;100.00
35519;BME280;21627;48.216;16.482;2023-02-23T04:36:04;99603.59;;;3.22;100.00
35519;BME280;21627;48.216;16.482;2023-02-23T04:38:32;99605.28;;;3.21;100.00
35519;BME280;21627;48.216;16.482;2023-02-23T04:40:59;99611.31;;;3.23;100.00
35519;BME280;21627;48.216;16.482;2023-02-23T04:43:29;99608.69;;;3.22;100.00
35519;BME280;21627;48.216;16.482;2023-02-23T04:45:56;99618.97;;;3.23;100.00
35519;BME280;21627;48.216;16.482;2023-02-23T04:48:24;99613.00;;;3.23;100.00
35519;BME280;21627;48.216;16.482;2023-02-23T04:50:53;99614.78;;;3.27;100.00
35519;BME280;21627;48.216;16.482;2023-02-23T04:53:23;99614.06;;;3.31;100.00
35519;BME280;21627;48.216;16.482;2023-02-23T04:55:53;99609.72;;;3.29;100.00
35519;BME280;21627;48.216;16.482;2023-02-23T04:58:20;99613.22;;;3.32;100.00
35519;BME280;21627;48.216;16.482;2023-02-23T05:00:48;99615.69;;;3.29;100.00
35519;BME280;21627;48.216;16.482;2023-02-23T05:03:16;99614.78;;;3.27;100.00
35519;BME280;21627;48.216;16.482;2023-02-23T05:05:46;99603.56;;;3.20;100.00
35519;BME280;21627;48.216;16.482;2023-02-23T05:08:13;99598.41;;;3.19;100.00
35519;BME280;21627;48.216;16.482;2023-02-23T05:10:40;99602.78;;;3.24;100.00
35519;BME280;21627;48.216;16.482;2023-02-23T05:13:07;99602.72;;;3.21;100.00
35519;BME280;21627;48.216;16.482;2023-02-23T05:15:35;99604.50;;;3.24;100.00
35519;BME280;21627;48.216;16.482;2023-02-23T05:18:03;99606.13;;;3.22;100.00
35519;BME280;21627;48.216;16.482;2023-02-23T05:20:30;99608.69;;;3.22;100.00
35519;BME280;21627;48.216;16.482;2023-02-23T05:22:58;99591.44;;;3.13;100.00
35519;BME280;21627;48.216;16.482;2023-02-23T05:25:25;99594.78;;;3.12;100.00
35519;BME280;21627;48.216;16.482;2023-02-23T05:27:52;99608.66;;;3.20;100.00
35519;BME280;21627;48.216;16.482;2023-02-23T05:30:20;99613.78;;;3.20;100.00
35519;BME280;21627;48.216;16.482;2023-02-23T05:32:47;99595.78;;;3.17;100.00
35519;BME280;21627;48.216;16.482;2023-02-23T05:35:15;99618.13;;;3.24;100.00
35519;BME280;21627;48.216;16.482;2023-02-23T05:37:42;99610.50;;;3.26;100.00
35519;BME280;21627;48.216;16.482;2023-02-23T05:40:11;99613.97;;;3.28;100.00
35519;BME280;21627;48.216;16.482;2023-02-23T05:42:38;99615.63;;;3.26;100.00
35519;BME280;21627;48.216;16.482;2023-02-23T05:45:06;99619.91;;;3.27;100.00
35519;BME280;21627;48.216;16.482;2023-02-23T05:47:34;99606.97;;;3.21;100.00
35519;BME280;21627;48.216;16.482;2023-02-23T05:50:09;99622.50;;;3.29;100.00
35519;BME280;21627;48.216;16.482;2023-02-23T05:52:39;99625.00;;;3.27;100.00
35519;BME280;21627;48.216;16.482;2023-02-23T05:55:09;99611.16;;;3.19;100.00
35519;BME280;21627;48.216;16.482;2023-02-23T05:57:38;99609.53;;;3.21;100.00
35519;BME280;21627;48.216;16.482;2023-02-23T06:00:08;99612.81;;;3.17;100.00
35519;BME280;21627;48.216;16.482;2023-02-23T06:02:35;99632.69;;;3.27;100.00
35519;BME280;21627;48.216;16.482;2023-02-23T06:05:03;99628.41;;;3.26;100.00
35519;BME280;21627;48.216;16.482;2023-02-23T06:07:32;99633.50;;;3.26;100.00
35519;BME280;21627;48.216;16.482;2023-02-23T06:09:59;99640.22;;;3.22;100.00
35519;BME280;21627;48.216;16.482;2023-02-23T06:12:26;99633.31;;;3.18;100.00
35519;BME280;21627;48.216;16.482;2023-02-23T06:14:53;99655.66;;;3.27;100.00
35519;BME280;21627;48.216;16.482;2023-02-23T06:17:21;99649.75;;;3.28;100.00
35519;BME280;21627;48.216;16.482;2023-02-23T06:19:51;99650.63;;;3.29;100.00
35519;BME280;21627;48.216;16.482;2023-02-23T06:22:18;99650.41;;;3.21;100.00
35519;BME280;21627;48.216;16.482;2023-02-23T06:24:45;99668.78;;;3.39;100.00
35519;BME280;21627;48.216;16.482;2023-02-23T06:27:13;99673.13;;;3.42;100.00
35519;BME280;21627;48.216;16.482;2023-02-23T06:29:40;99665.56;;;3.46;100.00
35519;BME280;21627;48.216;16.482;2023-02-23T06:32:08;99653.72;;;3.50;100.00
35519;BME280;21627;48.216;16.482;2023-02-23T06:34:35;99670.50;;;3.71;100.00
35519;BME280;21627;48.216;16.482;2023-02-23T06:37:02;99662.06;;;3.75;100.00
35519;BME280;21627;48.216;16.482;2023-02-23T06:39:30;99682.91;;;3.90;100.00
35519;BME280;21627;48.216;16.482;2023-02-23T06:41:57;99683.03;;;3.95;100.00
35519;BME280;21627;48.216;16.482;2023-02-23T06:44:25;99673.97;;;4.07;100.00
35519;BME280;21627;48.216;16.482;2023-02-23T06:46:52;99679.44;;;4.23;100.00
35519;BME280;21627;48.216;16.482;2023-02-23T06:49:20;99683.16;;;4.36;100.00
35519;BME280;21627;48.216;16.482;2023-02-23T06:51:47;99677.34;;;4.41;100.00
35519;BME280;21627;48.216;16.482;2023-02-23T06:54:14;99681.81;;;4.50;100.00
35519;BME280;21627;48.216;16.482;2023-02-23T06:56:42;99685.34;;;4.55;100.00
35519;BME280;21627;48.216;16.482;2023-02-23T06:59:09;99686.28;;;4.59;100.00
35519;BME280;21627;48.216;16.482;2023-02-23T07:01:37;99687.28;;;4.65;100.00
35519;BME280;21627;48.216;16.482;2023-02-23T07:04:04;99689.09;;;4.69;100.00
35519;BME280;21627;48.216;16.482;2023-02-23T07:06:31;99686.81;;;4.82;100.00
35519;BME280;21627;48.216;16.482;2023-02-23T07:08:58;99678.28;;;4.83;100.00
35519;BME280;21627;48.216;16.482;2023-02-23T07:11:25;99685.31;;;4.91;100.00
35519;BME280;21627;48.216;16.482;2023-02-23T07:13:59;99689.81;;;5.02;100.00
35519;BME280;21627;48.216;16.482;2023-02-23T07:16:30;99687.34;;;5.08;100.00
35519;BME280;21627;48.216;16.482;2023-02-23T07:18:58;99683.03;;;5.05;100.00
35519;BME280;21627;48.216;16.482;2023-02-23T07:21:29;99687.56;;;5.18;100.00
35519;BME280;21627;48.216;16.482;2023-02-23T07:24:00;99682.72;;;5.32;100.00
35519;BME280;21627;48.216;16.482;2023-02-23T07:26:31;99683.84;;;5.45;100.00
35519;BME280;21627;48.216;16.482;2023-02-23T07:29:02;99687.41;;;5.53;100.00
35519;BME280;21627;48.216;16.482;2023-02-23T07:31:29;99689.13;;;5.54;100.00
35519;BME280;21627;48.216;16.482;2023-02-23T07:33:56;99680.75;;;5.63;100.00
35519;BME280;21627;48.216;16.482;2023-02-23T07:36:27;99690.31;;;5.72;100.00
35519;BME280;21627;48.216;16.482;2023-02-23T07:38:54;99683.50;;;5.74;100.00
35519;BME280;21627;48.216;16.482;2023-02-23T07:41:22;99693.09;;;5.84;100.00
35519;BME280;21627;48.216;16.482;2023-02-23T07:43:52;99694.25;;;5.98;100.00
35519;BME280;21627;48.216;16.482;2023-02-23T07:46:19;99676.97;;;5.90;100.00
35519;BME280;21627;48.216;16.482;2023-02-23T07:48:46;99695.38;;;6.13;100.00
35519;BME280;21627;48.216;16.482;2023-02-23T07:51:15;99704.00;;;6.18;100.00
35519;BME280;21627;48.216;16.482;2023-02-23T07:53:44;99704.88;;;6.18;100.00
35519;BME280;21627;48.216;16.482;2023-02-23T07:56:12;99700.97;;;6.42;100.00
35519;BME280;21627;48.216;16.482;2023-02-23T07:58:42;99707.03;;;6.47;100.00
35519;BME280;21627;48.216;16.482;2023-02-23T08:01:11;99701.13;;;6.53;100.00
35519;BME280;21627;48.216;16.482;2023-02-23T08:03:39;99704.81;;;6.70;100.00
35519;BME280;21627;48.216;16.482;2023-02-23T08:06:06;99694.59;;;6.75;100.00
35519;BME280;21627;48.216;16.482;2023-02-23T08:08:37;99689.81;;;6.99;100.00
35519;BME280;21627;48.216;16.482;2023-02-23T08:11:05;99697.69;;;7.13;100.00
35519;BME280;21627;48.216;16.482;2023-02-23T08:13:32;99700.41;;;7.25;100.00
35519;BME280;21627;48.216;16.482;2023-02-23T08:15:59;99709.28;;;7.47;100.00
35519;BME280;21627;48.216;16.482;2023-02-23T08:18:27;99707.59;;;7.52;100.00
35519;BME280;21627;48.216;16.482;2023-02-23T08:21:03;99696.47;;;7.52;100.00
35519;BME280;21627;48.216;16.482;2023-02-23T08:23:34;99701.81;;;7.69;100.00
35519;BME280;21627;48.216;16.482;2023-02-23T08:26:01;99710.47;;;7.77;100.00
35519;BME280;21627;48.216;16.482;2023-02-23T08:28:30;99714.16;;;8.03;100.00
35519;BME280;21627;48.216;16.482;2023-02-23T08:30:57;99710.91;;;8.26;100.00
35519;BME280;21627;48.216;16.482;2023-02-23T08:33:25;99712.72;;;8.32;100.00
35519;BME280;21627;48.216;16.482;2023-02-23T08:35:52;99721.44;;;8.44;100.00
35519;BME280;21627;48.216;16.482;2023-02-23T08:38:23;99721.53;;;8.60;100.00
35519;BME280;21627;48.216;16.482;2023-02-23T08:40:50;99724.19;;;8.71;100.00
35519;BME280;21627;48.216;16.482;2023-02-23T08:43:17;99712.19;;;8.76;100.00
35519;BME280;21627;48.216;16.482;2023-02-23T08:45:44;99720.78;;;8.75;100.00
35519;BME280;21627;48.216;16.482;2023-02-23T08:48:11;99713.00;;;8.72;100.00
35519;BME280;21627;48.216;16.482;2023-02-23T08:50:39;99721.56;;;8.66;100.00
35519;BME280;21627;48.216;16.482;2023-02-23T08:53:06;99709.53;;;8.62;100.00
35519;BME280;21627;48.216;16.482;2023-02-23T08:55:33;99720.81;;;8.78;100.00
35519;BME280;21627;48.216;16.482;2023-02-23T08:58:01;99720.84;;;8.85;100.00
35519;BME280;21627;48.216;16.482;2023-02-23T09:00:31;99712.22;;;8.80;100.00
35519;BME280;21627;48.216;16.482;2023-02-23T09:02:58;99725.16;;;8.85;100.00
35519;BME280;21627;48.216;16.482;2023-02-23T09:05:25;99711.44;;;8.91;100.00
35519;BME280;21627;48.216;16.482;2023-02-23T09:07:53;99722.63;;;8.90;100.00
35519;BME280;21627;48.216;16.482;2023-02-23T09:10:20;99720.09;;;8.97;100.00
35519;BME280;21627;48.216;16.482;2023-02-23T09:12:50;99720.16;;;9.11;100.00
35519;BME280;21627;48.216;16.482;2023-02-23T09:15:18;99698.63;;;9.12;100.00
35519;BME280;21627;48.216;16.482;2023-02-23T09:17:46;99717.59;;;9.22;100.00
35519;BME280;21627;48.216;16.482;2023-02-23T09:20:15;99703.91;;;9.30;100.00
35519;BME280;21627;48.216;16.482;2023-02-23T09:22:43;99708.22;;;9.30;100.00
35519;BME280;21627;48.216;16.482;2023-02-23T09:25:19;99704.88;;;9.56;100.00
35519;BME280;21627;48.216;16.482;2023-02-23T09:27:53;99709.22;;;9.80;100.00
35519;BME280;21627;48.216;16.482;2023-02-23T09:30:22;99709.22;;;9.77;98.10
35519;BME280;21627;48.216;16.482;2023-02-23T09:32:52;99712.69;;;9.92;97.77
35519;BME280;21627;48.216;16.482;2023-02-23T09:35:22;99710.09;;;9.92;97.74
35519;BME280;21627;48.216;16.482;2023-02-23T09:37:53;99716.16;;;10.13;98.63
35519;BME280;21627;48.216;16.482;2023-02-23T09:40:28;99717.06;;;10.18;98.35
35519;BME280;21627;48.216;16.482;2023-02-23T09:49:14;99705.03;;;10.58;94.80
35519;BME280;21627;48.216;16.482;2023-02-23T09:51:48;99717.06;;;10.89;94.65
35519;BME280;21627;48.216;16.482;2023-02-23T09:54:27;99703.25;;;10.88;91.87
35519;BME280;21627;48.216;16.482;2023-02-23T09:56:55;99709.25;;;10.93;89.95
35519;BME280;21627;48.216;16.482;2023-02-23T09:59:24;99710.13;;;10.92;90.22
35519;BME280;21627;48.216;16.482;2023-02-23T10:05:03;99702.28;;;11.27;87.97
35519;BME280;21627;48.216;16.482;2023-02-23T10:07:52;99709.13;;;11.42;87.52
35519;BME280;21627;48.216;16.482;2023-02-23T10:22:11;99704.72;;;11.58;82.37
35519;BME280;21627;48.216;16.482;2023-02-23T10:27:43;99703.03;;;11.51;83.11
35519;BME280;21627;48.216;16.482;2023-02-23T10:30:22;99703.00;;;11.57;82.67
35519;BME280;21627;48.216;16.482;2023-02-23T10:33:15;99700.38;;;11.69;81.93
35519;BME280;21627;48.216;16.482;2023-02-23T10:35:54;99707.06;;;12.07;80.82
35519;BME280;21627;48.216;16.482;2023-02-23T10:38:41;99698.22;;;12.36;79.31
35519;BME280;21627;48.216;16.482;2023-02-23T10:41:09;99697.31;;;12.37;78.49
35519;BME280;21627;48.216;16.482;2023-02-23T10:43:40;99694.72;;;12.37;77.03
35519;BME280;21627;48.216;16.482;2023-02-23T10:46:22;99683.53;;;12.35;76.66
35519;BME280;21627;48.216;16.482;2023-02-23T10:48:51;99681.78;;;12.34;76.84
35519;BME280;21627;48.216;16.482;2023-02-23T10:51:33;99687.88;;;12.33;76.68
35519;BME280;21627;48.216;16.482;2023-02-23T10:54:42;99687.75;;;12.44;76.17
35519;BME280;21627;48.216;16.482;2023-02-23T10:57:25;99684.03;;;12.72;79.67
35519;BME280;21627;48.216;16.482;2023-02-23T11:00:23;99686.25;;;13.08;76.27
35519;BME280;21627;48.216;16.482;2023-02-23T11:02:58;99677.75;;;12.98;73.35
35519;BME280;21627;48.216;16.482;2023-02-23T11:05:47;99671.44;;;13.19;75.21
35519;BME280;21627;48.216;16.482;2023-02-23T11:13:49;99669.19;;;13.61;71.61
35519;BME280;21627;48.216;16.482;2023-02-23T11:16:24;99667.03;;;13.91;71.90
35519;BME280;21627;48.216;16.482;2023-02-23T11:19:01;99658.06;;;14.12;72.31
35519;BME280;21627;48.216;16.482;2023-02-23T11:21:36;99653.53;;;14.23;71.08
35519;BME280;21627;48.216;16.482;2023-02-23T11:26:51;99642.06;;;14.33;68.86
35519;BME280;21627;48.216;16.482;2023-02-23T11:29:34;99652.31;;;13.88;68.98
35519;BME280;21627;48.216;16.482;2023-02-23T11:32:20;99633.81;;;13.52;69.97
35519;BME280;21627;48.216;16.482;2023-02-23T11:37:49;99643.75;;;13.83;72.20
35519;BME280;21627;48.216;16.482;2023-02-23T11:40:28;99630.84;;;13.78;71.00
35519;BME280;21627;48.216;16.482;2023-02-23T11:43:13;99637.00;;;14.25;69.15
35519;BME280;21627;48.216;16.482;2023-02-23T11:45:50;99630.38;;;14.60;67.34
35519;BME280;21627;48.216;16.482;2023-02-23T11:48:31;99626.38;;;14.87;67.39
35519;BME280;21627;48.216;16.482;2023-02-23T11:51:00;99636.94;;;15.23;66.55
35519;BME280;21627;48.216;16.482;2023-02-23T11:53:38;99627.47;;;15.19;63.27
35519;BME280;21627;48.216;16.482;2023-02-23T11:56:09;99637.78;;;15.64;63.48
35519;BME280;21627;48.216;16.482;2023-02-23T12:01:47;99622.63;;;16.19;60.78
35519;BME280;21627;48.216;16.482;2023-02-23T12:06:52;99621.78;;;16.51;60.86
35519;BME280;21627;48.216;16.482;2023-02-23T12:09:28;99625.88;;;16.61;56.99
35519;BME280;21627;48.216;16.482;2023-02-23T12:12:15;99621.47;;;16.96;58.03
35519;BME280;21627;48.216;16.482;2023-02-23T12:17:26;99613.19;;;17.41;55.85
35519;BME280;21627;48.216;16.482;2023-02-23T12:20:17;99610.13;;;17.55;55.21
35519;BME280;21627;48.216;16.482;2023-02-23T12:23:12;99606.22;;;17.40;55.63
35519;BME280;21627;48.216;16.482;2023-02-23T12:25:53;99611.19;;;17.49;55.66
35519;BME280;21627;48.216;16.482;2023-02-23T12:28:42;99622.63;;;17.73;54.24
35519;BME280;21627;48.216;16.482;2023-02-23T12:31:26;99616.16;;;17.87;54.29
35519;BME280;21627;48.216;16.482;2023-02-23T12:34:09;99610.81;;;17.90;52.56
35519;BME280;21627;48.216;16.482;2023-02-23T12:39:36;99605.88;;;17.52;53.66
35519;BME280;21627;48.216;16.482;2023-02-23T12:44:52;99598.22;;;17.74;53.50
35519;BME280;21627;48.216;16.482;2023-02-23T12:47:35;99583.88;;;17.32;53.49
35519;BME280;21627;48.216;16.482;2023-02-23T12:50:32;99590.97;;;16.97;53.84
35519;BME280;21627;48.216;16.482;2023-02-23T13:01:56;99574.59;;;17.21;54.68
35519;BME280;21627;48.216;16.482;2023-02-23T13:13:45;99564.16;;;18.04;52.19
35519;BME280;21627;48.216;16.482;2023-02-23T13:16:33;99545.06;;;18.01;52.59
35519;BME280;21627;48.216;16.482;2023-02-23T13:19:20;99563.00;;;18.11;53.63
35519;BME280;21627;48.216;16.482;2023-02-23T13:22:39;99567.41;;;17.84;51.10
35519;BME280;21627;48.216;16.482;2023-02-23T13:28:47;99557.59;;;17.91;51.30
35519;BME280;21627;48.216;16.482;2023-02-23T13:31:36;99556.22;;;18.06;51.05
35519;BME280;21627;48.216;16.482;2023-02-23T13:34:29;99567.00;;;17.97;51.08
35519;BME280;21627;48.216;16.482;2023-02-23T13:36:59;99564.16;;;17.76;51.27
35519;BME280;21627;48.216;16.482;2023-02-23T13:42:29;99561.09;;;17.35;53.03
35519;BME280;21627;48.216;16.482;2023-02-23T13:51:11;99554.75;;;16.84;54.44
35519;BME280;21627;48.216;16.482;2023-02-23T13:54:33;99543.81;;;16.70;55.31
35519;BME280;21627;48.216;16.482;2023-02-23T13:56:53;99530.69;;;16.42;55.79
35519;BME280;21627;48.216;16.482;2023-02-23T13:59:28;99543.00;;;16.37;56.19
35519;BME280;21627;48.216;16.482;2023-02-23T14:02:00;99536.97;;;16.35;57.04
35519;BME280;21627;48.216;16.482;2023-02-23T14:04:35;99534.69;;;16.22;58.23
35519;BME280;21627;48.216;16.482;2023-02-23T14:07:17;99539.13;;;16.19;58.21
35519;BME280;21627;48.216;16.482;2023-02-23T14:09:58;99550.78;;;16.06;58.70
35519;BME280;21627;48.216;16.482;2023-02-23T14:12:38;99547.84;;;15.85;58.12
35519;BME280;21627;48.216;16.482;2023-02-23T14:18:26;99542.81;;;15.77;59.47
35519;BME280;21627;48.216;16.482;2023-02-23T14:21:11;99532.75;;;15.61;60.61
35519;BME280;21627;48.216;16.482;2023-02-23T14:26:37;99537.75;;;15.70;61.11
35519;BME280;21627;48.216;16.482;2023-02-23T14:29:26;99534.28;;;15.71;59.40
35519;BME280;21627;48.216;16.482;2023-02-23T14:34:49;99529.97;;;16.02;60.46
35519;BME280;21627;48.216;16.482;2023-02-23T14:39:48;99529.97;;;16.02;59.42
35519;BME280;21627;48.216;16.482;2023-02-23T14:42:25;99525.44;;;16.11;59.66
35519;BME280;21627;48.216;16.482;2023-02-23T14:44:55;99520.69;;;15.92;60.33
35519;BME280;21627;48.216;16.482;2023-02-23T14:47:25;99521.69;;;15.88;60.51
35519;BME280;21627;48.216;16.482;2023-02-23T14:49:58;99533.72;;;15.56;61.43
35519;BME280;21627;48.216;16.482;2023-02-23T14:52:34;99520.97;;;15.44;60.97
35519;BME280;21627;48.216;16.482;2023-02-23T14:55:23;99525.59;;;15.33;61.41
35519;BME280;21627;48.216;16.482;2023-02-23T14:57:54;99529.31;;;15.21;62.22
35519;BME280;21627;48.216;16.482;2023-02-23T15:00:28;99509.06;;;14.95;63.76
35519;BME280;21627;48.216;16.482;2023-02-23T15:03:08;99527.31;;;14.93;63.34
35519;BME280;21627;48.216;16.482;2023-02-23T15:05:55;99514.81;;;14.69;63.86
35519;BME280;21627;48.216;16.482;2023-02-23T15:08:25;99521.91;;;14.62;64.59
35519;BME280;21627;48.216;16.482;2023-02-23T15:11:10;99510.03;;;14.47;65.35
35519;BME280;21627;48.216;16.482;2023-02-23T15:13:42;99513.56;;;14.45;66.95
35519;BME280;21627;48.216;16.482;2023-02-23T15:16:27;99511.88;;;14.41;66.80
35519;BME280;21627;48.216;16.482;2023-02-23T15:19:33;99514.53;;;14.39;67.69
35519;BME280;21627;48.216;16.482;2023-02-23T15:22:03;99510.47;;;14.24;66.64
35519;BME280;21627;48.216;16.482;2023-02-23T15:24:46;99503.88;;;14.06;69.22
35519;BME280;21627;48.216;16.482;2023-02-23T15:27:20;99509.09;;;14.05;69.81
35519;BME280;21627;48.216;16.482;2023-02-23T15:29:49;99517.03;;;13.96;71.30
35519;BME280;21627;48.216;16.482;2023-02-23T15:32:20;99506.84;;;13.85;71.90
35519;BME280;21627;48.216;16.482;2023-02-23T15:34:49;99506.06;;;13.80;70.90
35519;BME280;21627;48.216;16.482;2023-02-23T15:37:34;99513.16;;;13.70;71.32
35519;BME280;21627;48.216;16.482;2023-02-23T15:40:18;99509.19;;;13.48;72.66